sensor_id;sensor_type;location;lat;lon;timestamp;pressure;altitude;pressure_sealevel;temperature;humidity
28267;BME280;15525;45.568;5.448;2023-06-14T00:00:10;97376.91;;;24.14;53.78
28267;BME280;15525;45.568;5.448;2023-06-14T00:02:38;97372.97;;;24.11;53.99
28267;BME280;15525;45.568;5.448;2023-06-14T00:05:05;97361.56;;;24.06;54.08
28267;BME280;15525;45.568;5.448;2023-06-14T00:07:41;97379.97;;;24.09;54.04
28267;BME280;15525;45.568;5.448;2023-06-14T00:10:13;97371.44;;;24.14;53.85
28267;BME280;15525;45.568;5.448;2023-06-14T00:12:39;97382.03;;;24.19;53.93
28267;BME280;15525;45.568;5.448;2023-06-14T00:15:06;97373.47;;;24.20;53.76
28267;BME280;15525;45.568;5.448;2023-06-14T00:17:31;97360.97;;;24.23;53.35
28267;BME280;15525;45.568;5.448;2023-06-14T00:19:59;97370.38;;;24.25;53.47
28267;BME280;15525;45.568;5.448;2023-06-14T00:22:25;97349.06;;;24.08;53.56
28267;BME280;15525;45.568;5.448;2023-06-14T00:24:51;97369.41;;;24.44;53.26
28267;BME280;15525;45.568;5.448;2023-06-14T00:27:17;97340.41;;;24.36;52.78
28267;BME280;15525;45.568;5.448;2023-06-14T00:29:42;97348.03;;;24.56;52.73
28267;BME280;15525;45.568;5.448;2023-06-14T00:32:08;97348.09;;;24.60;52.82
28267;BME280;15525;45.568;5.448;2023-06-14T00:34:34;97343.44;;;24.64;52.60
28267;BME280;15525;45.568;5.448;2023-06-14T00:36:59;97355.53;;;24.63;52.83
28267;BME280;15525;45.568;5.448;2023-06-14T00:39:25;97348.56;;;24.69;52.52
28267;BME280;15525;45.568;5.448;2023-06-14T00:41:50;97357.28;;;24.78;52.17
28267;BME280;15525;45.568;5.448;2023-06-14T00:44:16;97353.34;;;24.79;52.46
28267;BME280;15525;45.568;5.448;2023-06-14T00:46:42;97348.97;;;24.71;52.71
28267;BME280;15525;45.568;5.448;2023-06-14T00:49:09;97345.00;;;24.65;53.24
28267;BME280;15525;45.568;5.448;2023-06-14T00:51:36;97338.38;;;24.66;53.25
28267;BME280;15525;45.568;5.448;2023-06-14T00:54:02;97342.69;;;24.67;53.35
28267;BME280;15525;45.568;5.448;2023-06-14T00:56:28;97302.16;;;24.43;53.46
28267;BME280;15525;45.568;5.448;2023-06-14T00:58:55;97328.94;;;24.60;53.24
28267;BME280;15525;45.568;5.448;2023-06-14T01:01:21;97343.88;;;24.69;53.34
28267;BME280;15525;45.568;5.448;2023-06-14T01:03:46;97317.13;;;24.56;53.49
28267;BME280;15525;45.568;5.448;2023-06-14T01:06:23;97325.75;;;24.58;53.85
28267;BME280;15525;45.568;5.448;2023-06-14T01:09:30;97333.13;;;24.54;54.08
28267;BME280;15525;45.568;5.448;2023-06-14T01:14:45;97350.72;;;24.53;53.77
28267;BME280;15525;45.568;5.448;2023-06-14T01:17:12;97330.34;;;24.47;53.79
28267;BME280;15525;45.568;5.448;2023-06-14T01:19:45;97339.25;;;24.37;55.03
28267;BME280;15525;45.568;5.448;2023-06-14T01:22:11;97337.69;;;24.39;54.39
28267;BME280;15525;45.568;5.448;2023-06-14T01:24:37;97349.91;;;24.49;54.37
28267;BME280;15525;45.568;5.448;2023-06-14T01:27:05;97340.72;;;24.31;54.84
28267;BME280;15525;45.568;5.448;2023-06-14T01:29:33;97346.75;;;24.43;54.82
28267;BME280;15525;45.568;5.448;2023-06-14T01:32:01;97360.09;;;24.52;54.70
28267;BME280;15525;45.568;5.448;2023-06-14T01:34:27;97345.13;;;24.42;54.75
28267;BME280;15525;45.568;5.448;2023-06-14T01:36:53;97338.81;;;24.35;54.70
28267;BME280;15525;45.568;5.448;2023-06-14T01:39:22;97351.28;;;24.32;55.24
28267;BME280;15525;45.568;5.448;2023-06-14T01:41:49;97354.13;;;24.39;55.35
28267;BME280;15525;45.568;5.448;2023-06-14T01:44:16;97360.00;;;24.41;55.18
28267;BME280;15525;45.568;5.448;2023-06-14T01:46:43;97354.59;;;24.48;55.01
28267;BME280;15525;45.568;5.448;2023-06-14T01:49:08;97347.00;;;24.31;55.29
28267;BME280;15525;45.568;5.448;2023-06-14T01:51:34;97346.97;;;24.28;55.46
28267;BME280;15525;45.568;5.448;2023-06-14T01:54:00;97331.63;;;24.20;55.28
28267;BME280;15525;45.568;5.448;2023-06-14T01:56:26;97357.91;;;24.28;55.39
28267;BME280;15525;45.568;5.448;2023-06-14T01:58:52;97340.06;;;24.08;55.74
28267;BME280;15525;45.568;5.448;2023-06-14T02:01:19;97329.97;;;24.12;55.72
28267;BME280;15525;45.568;5.448;2023-06-14T02:03:46;97351.59;;;24.24;55.75
28267;BME280;15525;45.568;5.448;2023-06-14T02:06:12;97339.88;;;24.23;55.71
28267;BME280;15525;45.568;5.448;2023-06-14T02:08:37;97349.25;;;24.22;55.85
28267;BME280;15525;45.568;5.448;2023-06-14T02:11:03;97337.50;;;24.22;55.71
28267;BME280;15525;45.568;5.448;2023-06-14T02:13:28;97352.91;;;24.37;55.99
28267;BME280;15525;45.568;5.448;2023-06-14T02:15:53;97309.72;;;24.16;55.69
28267;BME280;15525;45.568;5.448;2023-06-14T02:18:20;97321.63;;;24.34;55.32
28267;BME280;15525;45.568;5.448;2023-06-14T02:20:46;97339.66;;;24.42;55.22
28267;BME280;15525;45.568;5.448;2023-06-14T02:23:12;97324.38;;;24.38;55.14
28267;BME280;15525;45.568;5.448;2023-06-14T02:25:37;97329.53;;;24.43;55.33
28267;BME280;15525;45.568;5.448;2023-06-14T02:28:04;97349.09;;;24.45;55.42
28267;BME280;15525;45.568;5.448;2023-06-14T02:30:30;97328.22;;;24.30;55.40
28267;BME280;15525;45.568;5.448;2023-06-14T02:32:56;97340.34;;;24.32;55.54
28267;BME280;15525;45.568;5.448;2023-06-14T02:35:22;97334.09;;;24.32;55.64
28267;BME280;15525;45.568;5.448;2023-06-14T02:37:49;97361.16;;;24.40;55.78
28267;BME280;15525;45.568;5.448;2023-06-14T02:40:16;97336.38;;;24.26;55.46
28267;BME280;15525;45.568;5.448;2023-06-14T02:42:41;97339.59;;;24.32;55.64
28267;BME280;15525;45.568;5.448;2023-06-14T02:45:07;97328.97;;;24.27;55.83
28267;BME280;15525;45.568;5.448;2023-06-14T02:47:33;97354.41;;;24.31;55.93
28267;BME280;15525;45.568;5.448;2023-06-14T02:49:58;97360.69;;;24.35;56.07
28267;BME280;15525;45.568;5.448;2023-06-14T02:52:24;97336.59;;;24.11;56.13
28267;BME280;15525;45.568;5.448;2023-06-14T02:54:50;97353.91;;;24.22;56.30
28267;BME280;15525;45.568;5.448;2023-06-14T02:57:16;97372.75;;;24.27;56.64
28267;BME280;15525;45.568;5.448;2023-06-14T02:59:41;97381.69;;;24.24;56.71
28267;BME280;15525;45.568;5.448;2023-06-14T03:02:07;97346.38;;;24.12;56.52
28267;BME280;15525;45.568;5.448;2023-06-14T03:04:32;97367.34;;;24.01;56.97
28267;BME280;15525;45.568;5.448;2023-06-14T03:07:02;97380.19;;;23.97;57.55
28267;BME280;15525;45.568;5.448;2023-06-14T03:09:35;97359.44;;;23.92;57.44
28267;BME280;15525;45.568;5.448;2023-06-14T03:12:02;97358.31;;;23.97;57.22
28267;BME280;15525;45.568;5.448;2023-06-14T03:14:28;97350.94;;;24.01;57.36
28267;BME280;15525;45.568;5.448;2023-06-14T03:16:55;97366.69;;;24.11;56.94
28267;BME280;15525;45.568;5.448;2023-06-14T03:19:22;97369.91;;;24.20;56.74
28267;BME280;15525;45.568;5.448;2023-06-14T03:21:48;97370.72;;;24.20;56.67
28267;BME280;15525;45.568;5.448;2023-06-14T03:24:14;97373.84;;;24.22;56.66
28267;BME280;15525;45.568;5.448;2023-06-14T03:26:41;97373.88;;;24.26;56.57
28267;BME280;15525;45.568;5.448;2023-06-14T03:29:07;97362.19;;;24.25;56.52
28267;BME280;15525;45.568;5.448;2023-06-14T03:31:34;97364.53;;;24.27;56.56
28267;BME280;15525;45.568;5.448;2023-06-14T03:34:00;97362.44;;;24.17;57.06
28267;BME280;15525;45.568;5.448;2023-06-14T03:36:26;97363.91;;;24.07;57.39
28267;BME280;15525;45.568;5.448;2023-06-14T03:38:51;97368.81;;;24.24;56.88
28267;BME280;15525;45.568;5.448;2023-06-14T03:41:16;97367.59;;;24.22;56.87
28267;BME280;15525;45.568;5.448;2023-06-14T03:43:42;97364.38;;;24.13;56.89
28267;BME280;15525;45.568;5.448;2023-06-14T03:46:07;97357.31;;;24.12;57.02
28267;BME280;15525;45.568;5.448;2023-06-14T03:48:33;97362.78;;;24.12;56.92
28267;BME280;15525;45.568;5.448;2023-06-14T03:50:58;97348.25;;;24.04;57.13
28267;BME280;15525;45.568;5.448;2023-06-14T03:53:23;97362.06;;;24.15;57.35
28267;BME280;15525;45.568;5.448;2023-06-14T03:55:50;97371.13;;;24.22;57.34
28267;BME280;15525;45.568;5.448;2023-06-14T03:58:17;97368.38;;;24.22;57.08
28267;BME280;15525;45.568;5.448;2023-06-14T04:00:43;97361.31;;;24.18;56.98
28267;BME280;15525;45.568;5.448;2023-06-14T04:03:09;97380.97;;;24.27;57.20
28267;BME280;15525;45.568;5.448;2023-06-14T04:05:35;97372.66;;;24.20;57.22
28267;BME280;15525;45.568;5.448;2023-06-14T04:08:01;97383.22;;;24.21;57.44
28267;BME280;15525;45.568;5.448;2023-06-14T04:10:26;97363.56;;;24.09;57.44
28267;BME280;15525;45.568;5.448;2023-06-14T04:12:52;97361.16;;;24.04;57.29
28267;BME280;15525;45.568;5.448;2023-06-14T04:15:17;97372.19;;;24.14;57.52
28267;BME280;15525;45.568;5.448;2023-06-14T04:17:43;97374.56;;;24.16;57.49
28267;BME280;15525;45.568;5.448;2023-06-14T04:20:08;97376.53;;;24.15;57.60
28267;BME280;15525;45.568;5.448;2023-06-14T04:22:35;97379.63;;;24.14;57.66
28267;BME280;15525;45.568;5.448;2023-06-14T04:25:01;97390.72;;;24.24;57.67
28267;BME280;15525;45.568;5.448;2023-06-14T04:27:27;97381.75;;;24.31;57.21
28267;BME280;15525;45.568;5.448;2023-06-14T04:29:55;97389.59;;;24.32;57.17
28267;BME280;15525;45.568;5.448;2023-06-14T04:32:25;97395.44;;;24.31;57.30
28267;BME280;15525;45.568;5.448;2023-06-14T04:34:55;97405.31;;;24.39;57.54
28267;BME280;15525;45.568;5.448;2023-06-14T04:37:21;97384.56;;;24.34;57.05
28267;BME280;15525;45.568;5.448;2023-06-14T04:39:48;97388.19;;;24.45;57.02
28267;BME280;15525;45.568;5.448;2023-06-14T04:42:15;97411.00;;;24.56;56.90
28267;BME280;15525;45.568;5.448;2023-06-14T04:44:44;97385.41;;;24.42;57.06
28267;BME280;15525;45.568;5.448;2023-06-14T04:47:10;97412.19;;;24.59;56.82
28267;BME280;15525;45.568;5.448;2023-06-14T04:49:38;97410.19;;;24.56;56.87
28267;BME280;15525;45.568;5.448;2023-06-14T04:52:03;97386.63;;;24.44;56.88
28267;BME280;15525;45.568;5.448;2023-06-14T04:54:29;97407.88;;;24.58;57.06
28267;BME280;15525;45.568;5.448;2023-06-14T04:56:56;97418.91;;;24.61;57.14
28267;BME280;15525;45.568;5.448;2023-06-14T04:59:22;97411.75;;;24.53;57.15
28267;BME280;15525;45.568;5.448;2023-06-14T05:01:51;97422.91;;;24.71;56.94
28267;BME280;15525;45.568;5.448;2023-06-14T05:04:19;97401.56;;;24.54;56.86
28267;BME280;15525;45.568;5.448;2023-06-14T05:06:45;97421.78;;;24.75;56.79
28267;BME280;15525;45.568;5.448;2023-06-14T05:09:11;97425.72;;;24.78;56.88
28267;BME280;15525;45.568;5.448;2023-06-14T05:11:37;97419.91;;;24.83;56.81
28267;BME280;15525;45.568;5.448;2023-06-14T05:14:02;97427.03;;;24.91;56.64
28267;BME280;15525;45.568;5.448;2023-06-14T05:16:28;97424.28;;;24.91;56.52
28267;BME280;15525;45.568;5.448;2023-06-14T05:18:54;97412.06;;;24.81;56.62
28267;BME280;15525;45.568;5.448;2023-06-14T05:21:20;97413.19;;;24.77;56.88
28267;BME280;15525;45.568;5.448;2023-06-14T05:23:45;97433.25;;;24.88;56.83
28267;BME280;15525;45.568;5.448;2023-06-14T05:26:11;97417.19;;;24.86;56.85
28267;BME280;15525;45.568;5.448;2023-06-14T05:28:36;97406.22;;;24.83;56.81
28267;BME280;15525;45.568;5.448;2023-06-14T05:31:02;97427.97;;;25.09;56.50
28267;BME280;15525;45.568;5.448;2023-06-14T05:33:27;97410.75;;;25.08;56.12
28267;BME280;15525;45.568;5.448;2023-06-14T05:35:53;97406.47;;;25.11;55.97
28267;BME280;15525;45.568;5.448;2023-06-14T05:38:19;97400.19;;;25.10;55.77
28267;BME280;15525;45.568;5.448;2023-06-14T05:40:44;97421.50;;;25.31;55.59
28267;BME280;15525;45.568;5.448;2023-06-14T05:43:10;97433.03;;;25.50;55.44
28267;BME280;15525;45.568;5.448;2023-06-14T05:45:35;97387.38;;;25.25;55.45
28267;BME280;15525;45.568;5.448;2023-06-14T05:48:01;97423.56;;;25.41;55.28
28267;BME280;15525;45.568;5.448;2023-06-14T05:50:26;97429.09;;;25.48;55.41
28267;BME280;15525;45.568;5.448;2023-06-14T05:52:53;97432.94;;;25.40;55.56
28267;BME280;15525;45.568;5.448;2023-06-14T05:55:19;97435.31;;;25.45;55.39
28267;BME280;15525;45.568;5.448;2023-06-14T05:57:45;97425.91;;;25.39;55.78
28267;BME280;15525;45.568;5.448;2023-06-14T06:00:10;97436.84;;;25.39;55.52
28267;BME280;15525;45.568;5.448;2023-06-14T06:02:37;97421.22;;;25.39;55.32
28267;BME280;15525;45.568;5.448;2023-06-14T06:05:02;97438.16;;;25.59;55.09
28267;BME280;15525;45.568;5.448;2023-06-14T06:07:28;97429.63;;;25.64;54.97
28267;BME280;15525;45.568;5.448;2023-06-14T06:09:53;97418.31;;;25.76;54.44
28267;BME280;15525;45.568;5.448;2023-06-14T06:12:19;97417.94;;;25.81;54.37
28267;BME280;15525;45.568;5.448;2023-06-14T06:14:44;97427.84;;;25.92;54.28
28267;BME280;15525;45.568;5.448;2023-06-14T06:17:09;97430.47;;;25.78;54.52
28267;BME280;15525;45.568;5.448;2023-06-14T06:19:35;97414.47;;;25.91;54.19
28267;BME280;15525;45.568;5.448;2023-06-14T06:22:02;97427.97;;;26.20;53.50
28267;BME280;15525;45.568;5.448;2023-06-14T06:24:30;97438.19;;;26.27;53.49
28267;BME280;15525;45.568;5.448;2023-06-14T06:26:55;97441.41;;;26.46;53.07
28267;BME280;15525;45.568;5.448;2023-06-14T06:29:20;97443.47;;;26.60;52.63
28267;BME280;15525;45.568;5.448;2023-06-14T06:31:46;97443.09;;;26.68;52.64
28267;BME280;15525;45.568;5.448;2023-06-14T06:34:11;97432.06;;;26.58;52.72
28267;BME280;15525;45.568;5.448;2023-06-14T06:36:36;97440.72;;;26.63;52.29
28267;BME280;15525;45.568;5.448;2023-06-14T06:39:02;97426.59;;;26.58;52.39
28267;BME280;15525;45.568;5.448;2023-06-14T06:41:34;97448.22;;;26.77;52.25
28267;BME280;15525;45.568;5.448;2023-06-14T06:44:01;97445.53;;;26.98;51.47
28267;BME280;15525;45.568;5.448;2023-06-14T06:46:27;97440.03;;;26.98;51.53
28267;BME280;15525;45.568;5.448;2023-06-14T06:48:52;97430.22;;;26.97;51.65
28267;BME280;15525;45.568;5.448;2023-06-14T06:51:17;97443.63;;;27.26;50.97
28267;BME280;15525;45.568;5.448;2023-06-14T06:53:43;97436.94;;;27.45;50.40
28267;BME280;15525;45.568;5.448;2023-06-14T06:56:09;97440.06;;;27.57;50.27
28267;BME280;15525;45.568;5.448;2023-06-14T06:58:34;97418.44;;;27.52;50.13
28267;BME280;15525;45.568;5.448;2023-06-14T07:00:59;97443.19;;;27.63;50.37
28267;BME280;15525;45.568;5.448;2023-06-14T07:03:25;97425.53;;;27.50;50.20
28267;BME280;15525;45.568;5.448;2023-06-14T07:05:51;97452.63;;;27.72;49.63
28267;BME280;15525;45.568;5.448;2023-06-14T07:08:17;97432.22;;;27.70;49.37
28267;BME280;15525;45.568;5.448;2023-06-14T07:10:42;97449.50;;;27.81;49.63
28267;BME280;15525;45.568;5.448;2023-06-14T07:13:08;97442.00;;;27.92;48.92
28267;BME280;15525;45.568;5.448;2023-06-14T07:15:33;97455.69;;;28.16;47.39
28267;BME280;15525;45.568;5.448;2023-06-14T07:17:59;97453.69;;;28.42;45.92
28267;BME280;15525;45.568;5.448;2023-06-14T07:20:24;97452.88;;;28.48;44.83
28267;BME280;15525;45.568;5.448;2023-06-14T07:22:50;97440.66;;;28.52;44.12
28267;BME280;15525;45.568;5.448;2023-06-14T07:25:16;97453.94;;;28.72;44.07
28267;BME280;15525;45.568;5.448;2023-06-14T07:27:45;97464.56;;;28.70;43.61
28267;BME280;15525;45.568;5.448;2023-06-14T07:30:11;97467.72;;;28.68;43.04
28267;BME280;15525;45.568;5.448;2023-06-14T07:32:37;97470.41;;;28.82;42.03
28267;BME280;15525;45.568;5.448;2023-06-14T07:35:02;97446.34;;;28.90;41.46
28267;BME280;15525;45.568;5.448;2023-06-14T07:37:28;97445.94;;;28.98;40.60
28267;BME280;15525;45.568;5.448;2023-06-14T07:39:53;97467.09;;;29.19;40.57
28267;BME280;15525;45.568;5.448;2023-06-14T07:42:19;97464.00;;;29.06;40.72
28267;BME280;15525;45.568;5.448;2023-06-14T07:44:45;97463.50;;;29.22;40.83
28267;BME280;15525;45.568;5.448;2023-06-14T07:47:10;97471.78;;;29.22;40.17
28267;BME280;15525;45.568;5.448;2023-06-14T07:49:35;97467.16;;;29.08;39.89
28267;BME280;15525;45.568;5.448;2023-06-14T07:52:01;97479.16;;;29.35;39.85
28267;BME280;15525;45.568;5.448;2023-06-14T07:54:26;97471.25;;;29.37;39.19
28267;BME280;15525;45.568;5.448;2023-06-14T07:56:52;97483.28;;;29.64;39.13
28267;BME280;15525;45.568;5.448;2023-06-14T07:59:18;97464.22;;;29.33;39.10
28267;BME280;15525;45.568;5.448;2023-06-14T08:01:43;97473.31;;;29.26;39.21
28267;BME280;15525;45.568;5.448;2023-06-14T08:04:16;97484.91;;;29.55;39.28
28267;BME280;15525;45.568;5.448;2023-06-14T08:06:41;97484.25;;;29.91;38.81
28267;BME280;15525;45.568;5.448;2023-06-14T08:09:10;97483.25;;;29.71;37.83
28267;BME280;15525;45.568;5.448;2023-06-14T08:11:36;97477.88;;;29.50;38.93
28267;BME280;15525;45.568;5.448;2023-06-14T08:14:01;97473.94;;;29.95;38.77
28267;BME280;15525;45.568;5.448;2023-06-14T08:16:27;97471.72;;;30.24;38.81
28267;BME280;15525;45.568;5.448;2023-06-14T08:18:52;97478.91;;;30.11;39.15
28267;BME280;15525;45.568;5.448;2023-06-14T08:21:17;97468.50;;;30.25;39.53
28267;BME280;15525;45.568;5.448;2023-06-14T08:23:43;97472.88;;;30.56;39.20
28267;BME280;15525;45.568;5.448;2023-06-14T08:26:09;97472.41;;;30.65;39.66
28267;BME280;15525;45.568;5.448;2023-06-14T08:28:35;97466.50;;;30.63;39.70
28267;BME280;15525;45.568;5.448;2023-06-14T08:31:00;97480.38;;;30.89;39.38
28267;BME280;15525;45.568;5.448;2023-06-14T08:33:26;97491.16;;;31.10;39.95
28267;BME280;15525;45.568;5.448;2023-06-14T08:35:52;97475.91;;;30.99;39.73
28267;BME280;15525;45.568;5.448;2023-06-14T08:38:17;97495.91;;;31.10;39.81
28267;BME280;15525;45.568;5.448;2023-06-14T08:40:45;97493.28;;;31.29;39.16
28267;BME280;15525;45.568;5.448;2023-06-14T08:43:13;97468.78;;;30.71;36.13
28267;BME280;15525;45.568;5.448;2023-06-14T08:45:38;97483.41;;;30.35;36.68
28267;BME280;15525;45.568;5.448;2023-06-14T08:48:06;97488.41;;;30.10;37.27
28267;BME280;15525;45.568;5.448;2023-06-14T08:50:32;97491.81;;;30.58;37.22
28267;BME280;15525;45.568;5.448;2023-06-14T08:53:00;97489.41;;;31.23;36.24
28267;BME280;15525;45.568;5.448;2023-06-14T08:55:28;97493.50;;;31.65;36.00
28267;BME280;15525;45.568;5.448;2023-06-14T08:57:58;97507.91;;;32.02;35.85
28267;BME280;15525;45.568;5.448;2023-06-14T09:00:25;97494.19;;;32.18;35.76
28267;BME280;15525;45.568;5.448;2023-06-14T09:02:51;97488.44;;;32.29;35.35
28267;BME280;15525;45.568;5.448;2023-06-14T09:05:24;97493.50;;;32.11;35.56
28267;BME280;15525;45.568;5.448;2023-06-14T09:07:50;97493.97;;;31.86;35.85
28267;BME280;15525;45.568;5.448;2023-06-14T09:10:16;97487.44;;;31.73;35.38
28267;BME280;15525;45.568;5.448;2023-06-14T09:12:42;97508.75;;;32.45;35.34
28267;BME280;15525;45.568;5.448;2023-06-14T09:15:08;97514.34;;;32.19;35.16
28267;BME280;15525;45.568;5.448;2023-06-14T09:17:40;97487.50;;;32.16;34.70
28267;BME280;15525;45.568;5.448;2023-06-14T09:20:07;97494.03;;;32.25;35.66
28267;BME280;15525;45.568;5.448;2023-06-14T09:22:39;97508.66;;;32.49;34.90
28267;BME280;15525;45.568;5.448;2023-06-14T09:25:05;97514.75;;;31.75;35.50
28267;BME280;15525;45.568;5.448;2023-06-14T09:27:32;97509.13;;;31.78;35.53
28267;BME280;15525;45.568;5.448;2023-06-14T09:29:57;97514.13;;;32.52;35.41
28267;BME280;15525;45.568;5.448;2023-06-14T09:32:23;97494.53;;;33.37;34.38
28267;BME280;15525;45.568;5.448;2023-06-14T09:34:49;97500.09;;;34.01;33.46
28267;BME280;15525;45.568;5.448;2023-06-14T09:37:31;97509.63;;;33.52;32.85
28267;BME280;15525;45.568;5.448;2023-06-14T09:39:57;97508.00;;;31.76;35.72
28267;BME280;15525;45.568;5.448;2023-06-14T09:42:23;97503.44;;;30.79;36.86
28267;BME280;15525;45.568;5.448;2023-06-14T09:44:51;97512.38;;;30.90;37.41
28267;BME280;15525;45.568;5.448;2023-06-14T09:47:18;97516.34;;;31.72;36.31
28267;BME280;15525;45.568;5.448;2023-06-14T09:49:44;97524.50;;;32.48;36.26
28267;BME280;15525;45.568;5.448;2023-06-14T09:52:20;97512.69;;;32.44;34.99
28267;BME280;15525;45.568;5.448;2023-06-14T09:54:47;97516.78;;;32.59;35.33
28267;BME280;15525;45.568;5.448;2023-06-14T09:57:14;97507.16;;;32.64;34.45
28267;BME280;15525;45.568;5.448;2023-06-14T09:59:42;97495.81;;;33.13;34.28
28267;BME280;15525;45.568;5.448;2023-06-14T10:05:11;97528.78;;;32.92;34.33
28267;BME280;15525;45.568;5.448;2023-06-14T10:07:48;97524.19;;;32.66;34.07
28267;BME280;15525;45.568;5.448;2023-06-14T10:10:17;97527.38;;;33.03;34.65
28267;BME280;15525;45.568;5.448;2023-06-14T10:12:42;97517.00;;;33.75;33.36
28267;BME280;15525;45.568;5.448;2023-06-14T10:15:13;97508.25;;;33.60;32.42
28267;BME280;15525;45.568;5.448;2023-06-14T10:17:49;97497.75;;;34.00;32.34
28267;BME280;15525;45.568;5.448;2023-06-14T10:20:30;97516.47;;;33.64;32.71
28267;BME280;15525;45.568;5.448;2023-06-14T10:23:01;97511.47;;;33.23;33.39
28267;BME280;15525;45.568;5.448;2023-06-14T10:25:30;97518.03;;;32.12;34.91
28267;BME280;15525;45.568;5.448;2023-06-14T10:28:15;97522.56;;;31.53;35.87
28267;BME280;15525;45.568;5.448;2023-06-14T10:31:07;97526.94;;;31.24;37.10
28267;BME280;15525;45.568;5.448;2023-06-14T10:33:33;97523.16;;;31.91;36.16
28267;BME280;15525;45.568;5.448;2023-06-14T10:38:36;97527.88;;;32.59;34.80
28267;BME280;15525;45.568;5.448;2023-06-14T10:41:01;97511.84;;;32.47;34.40
28267;BME280;15525;45.568;5.448;2023-06-14T10:43:27;97498.00;;;33.73;32.75
28267;BME280;15525;45.568;5.448;2023-06-14T10:46:15;97505.28;;;34.88;34.96
28267;BME280;15525;45.568;5.448;2023-06-14T10:48:43;97494.97;;;35.39;31.13
28267;BME280;15525;45.568;5.448;2023-06-14T10:51:21;97494.31;;;33.28;32.51
28267;BME280;15525;45.568;5.448;2023-06-14T10:53:48;97507.53;;;32.46;34.54
28267;BME280;15525;45.568;5.448;2023-06-14T10:56:27;97517.31;;;32.08;35.17
28267;BME280;15525;45.568;5.448;2023-06-14T10:58:53;97504.66;;;32.30;35.58
28267;BME280;15525;45.568;5.448;2023-06-14T11:01:37;97505.41;;;33.28;32.79
28267;BME280;15525;45.568;5.448;2023-06-14T11:04:08;97509.28;;;34.59;33.03
28267;BME280;15525;45.568;5.448;2023-06-14T11:06:49;97494.38;;;35.06;31.04
28267;BME280;15525;45.568;5.448;2023-06-14T11:12:03;97499.63;;;34.76;31.71
28267;BME280;15525;45.568;5.448;2023-06-14T11:14:32;97486.34;;;34.83;30.90
28267;BME280;15525;45.568;5.448;2023-06-14T11:16:57;97503.94;;;35.05;30.57
28267;BME280;15525;45.568;5.448;2023-06-14T11:19:23;97500.38;;;34.92;30.52
28267;BME280;15525;45.568;5.448;2023-06-14T11:21:48;97492.63;;;35.38;29.54
28267;BME280;15525;45.568;5.448;2023-06-14T11:24:14;97492.31;;;35.73;30.22
28267;BME280;15525;45.568;5.448;2023-06-14T11:26:40;97483.16;;;35.60;29.88
28267;BME280;15525;45.568;5.448;2023-06-14T11:29:05;97491.13;;;34.67;31.08
28267;BME280;15525;45.568;5.448;2023-06-14T11:31:31;97509.41;;;34.39;31.56
28267;BME280;15525;45.568;5.448;2023-06-14T11:33:57;97512.31;;;34.36;31.55
28267;BME280;15525;45.568;5.448;2023-06-14T11:36:26;97491.59;;;34.65;31.14
28267;BME280;15525;45.568;5.448;2023-06-14T11:39:06;97487.66;;;34.91;30.00
28267;BME280;15525;45.568;5.448;2023-06-14T11:41:37;97468.53;;;35.69;29.26
28267;BME280;15525;45.568;5.448;2023-06-14T11:44:03;97495.81;;;35.11;30.24
28267;BME280;15525;45.568;5.448;2023-06-14T11:46:29;97491.41;;;35.64;30.08
28267;BME280;15525;45.568;5.448;2023-06-14T11:48:54;97475.69;;;33.77;31.54
28267;BME280;15525;45.568;5.448;2023-06-14T11:51:20;97481.47;;;34.30;30.67
28267;BME280;15525;45.568;5.448;2023-06-14T11:53:46;97489.94;;;34.68;30.64
28267;BME280;15525;45.568;5.448;2023-06-14T11:56:11;97496.16;;;35.00;30.45
28267;BME280;15525;45.568;5.448;2023-06-14T11:58:37;97472.44;;;35.21;29.60
28267;BME280;15525;45.568;5.448;2023-06-14T12:01:03;97466.75;;;34.99;29.64
28267;BME280;15525;45.568;5.448;2023-06-14T12:03:29;97469.69;;;35.59;29.44
28267;BME280;15525;45.568;5.448;2023-06-14T12:06:07;97475.34;;;34.92;28.59
28267;BME280;15525;45.568;5.448;2023-06-14T12:08:36;97489.94;;;35.72;28.20
28267;BME280;15525;45.568;5.448;2023-06-14T12:11:12;97472.50;;;34.80;29.50
28267;BME280;15525;45.568;5.448;2023-06-14T12:13:39;97473.84;;;34.47;29.55
28267;BME280;15525;45.568;5.448;2023-06-14T12:16:10;97493.28;;;35.16;28.89
28267;BME280;15525;45.568;5.448;2023-06-14T12:18:38;97469.91;;;35.01;28.54
28267;BME280;15525;45.568;5.448;2023-06-14T12:21:08;97475.22;;;35.08;28.14
28267;BME280;15525;45.568;5.448;2023-06-14T12:23:47;97469.66;;;35.84;27.25
28267;BME280;15525;45.568;5.448;2023-06-14T12:26:17;97475.56;;;35.61;27.15
28267;BME280;15525;45.568;5.448;2023-06-14T12:28:44;97491.06;;;35.37;26.67
28267;BME280;15525;45.568;5.448;2023-06-14T12:31:14;97483.13;;;35.10;26.52
28267;BME280;15525;45.568;5.448;2023-06-14T12:33:40;97460.63;;;35.17;27.00
28267;BME280;15525;45.568;5.448;2023-06-14T12:36:07;97455.19;;;35.64;26.25
28267;BME280;15525;45.568;5.448;2023-06-14T12:38:33;97473.22;;;35.21;25.84
28267;BME280;15525;45.568;5.448;2023-06-14T12:41:00;97481.91;;;34.98;26.31
28267;BME280;15525;45.568;5.448;2023-06-14T12:43:26;97451.47;;;34.38;26.58
28267;BME280;15525;45.568;5.448;2023-06-14T12:45:51;97465.19;;;34.45;27.08
28267;BME280;15525;45.568;5.448;2023-06-14T12:48:16;97470.84;;;34.25;25.93
28267;BME280;15525;45.568;5.448;2023-06-14T12:50:42;97474.88;;;34.08;26.88
28267;BME280;15525;45.568;5.448;2023-06-14T12:53:07;97456.88;;;34.57;26.41
28267;BME280;15525;45.568;5.448;2023-06-14T12:55:33;97459.53;;;35.52;26.27
28267;BME280;15525;45.568;5.448;2023-06-14T12:57:58;97444.72;;;35.17;25.71
28267;BME280;15525;45.568;5.448;2023-06-14T13:00:24;97477.25;;;35.46;24.97
28267;BME280;15525;45.568;5.448;2023-06-14T13:02:51;97465.22;;;35.61;25.81
28267;BME280;15525;45.568;5.448;2023-06-14T13:05:17;97479.38;;;35.79;25.33
28267;BME280;15525;45.568;5.448;2023-06-14T13:07:43;97482.69;;;35.87;25.27
28267;BME280;15525;45.568;5.448;2023-06-14T13:10:08;97476.34;;;35.23;25.94